AUA753Y LOWW-LATI
Flight info
| Callsign | AUA753Y |
|---|---|
| Flight time | 1h 5m |
| Altitude | 37000 |
| Route | EWUK1C ARSIN NALOX OSDUK VIBOP AKIKA INLOT INLO3N |
| Aircraft | A320/M-SDE3FGHIRWY/LB1 |
Departure
| Time | 2026-05-08 19:32 |
|---|---|
| Airport | Vienna International Airport (LOWW) |
Arrival
| Time | 2026-05-08 20:37 |
|---|---|
| Airport | Tirana International Airport Mother Teresa (LATI) |
| Time | Latitude | Longitude | Altitude | Speed | Heading |
|---|---|---|---|---|---|
| 2026-05-08 19:04 | 48.11897 | 16.56768 | 610 ft | 0 kts | 206° |
| 2026-05-08 19:26 | 48.11912 | 16.56778 | 622 ft | 4 kts | 204° |
| 2026-05-08 19:26 | 48.11937 | 16.56793 | 621 ft | 4 kts | 193° |
| 2026-05-08 19:26 | 48.11962 | 16.56796 | 625 ft | 4 kts | 152° |
| 2026-05-08 19:26 | 48.11971 | 16.56785 | 625 ft | 0 kts | 116° |
| 2026-05-08 19:28 | 48.11960 | 16.56818 | 617 ft | 13 kts | 116° |
| 2026-05-08 19:28 | 48.11896 | 16.57017 | 615 ft | 24 kts | 115° |
| 2026-05-08 19:28 | 48.11853 | 16.57240 | 607 ft | 22 kts | 97° |
| 2026-05-08 19:29 | 48.11746 | 16.57373 | 613 ft | 22 kts | 164° |
| 2026-05-08 19:29 | 48.11594 | 16.57437 | 617 ft | 23 kts | 164° |
| 2026-05-08 19:29 | 48.11445 | 16.57425 | 621 ft | 21 kts | 205° |
| 2026-05-08 19:29 | 48.11318 | 16.57336 | 615 ft | 20 kts | 206° |
| 2026-05-08 19:30 | 48.11199 | 16.57306 | 611 ft | 17 kts | 130° |
| 2026-05-08 19:30 | 48.11145 | 16.57472 | 617 ft | 18 kts | 116° |
| 2026-05-08 19:30 | 48.11083 | 16.57638 | 609 ft | 18 kts | 147° |
| 2026-05-08 19:30 | 48.10971 | 16.57593 | 615 ft | 17 kts | 211° |
| 2026-05-08 19:31 | 48.10946 | 16.57433 | 622 ft | 24 kts | 295° |
| 2026-05-08 19:31 | 48.11124 | 16.56891 | 613 ft | 92 kts | 296° |
| 2026-05-08 19:31 | 48.11495 | 16.55755 | 613 ft | 148 kts | 296° |
| 2026-05-08 19:31 | 48.11999 | 16.54208 | 845 ft | 170 kts | 296° |
| 2026-05-08 19:32 | 48.12393 | 16.52556 | 1478 ft | 172 kts | 270° |
| 2026-05-08 19:32 | 48.11931 | 16.50909 | 1985 ft | 186 kts | 221° |
| 2026-05-08 19:32 | 48.10699 | 16.50085 | 2319 ft | 207 kts | 194° |
| 2026-05-08 19:32 | 48.09247 | 16.49580 | 2841 ft | 218 kts | 192° |
| 2026-05-08 19:33 | 48.07745 | 16.49075 | 3657 ft | 222 kts | 193° |
| 2026-05-08 19:33 | 48.06735 | 16.48716 | 4321 ft | 221 kts | 194° |
| 2026-05-08 19:33 | 48.05283 | 16.47982 | 5251 ft | 223 kts | 209° |
| 2026-05-08 19:33 | 48.03864 | 16.46763 | 5753 ft | 247 kts | 212° |
| 2026-05-08 19:34 | 48.02346 | 16.45337 | 6342 ft | 265 kts | 213° |
| 2026-05-08 19:34 | 48.00779 | 16.43817 | 7198 ft | 271 kts | 214° |
| 2026-05-08 19:34 | 47.99084 | 16.42542 | 8090 ft | 277 kts | 198° |
| 2026-05-08 19:34 | 47.97153 | 16.42205 | 8989 ft | 285 kts | 176° |
| 2026-05-08 19:35 | 47.95215 | 16.42776 | 9887 ft | 290 kts | 168° |
| 2026-05-08 19:35 | 47.93223 | 16.43494 | 10547 ft | 303 kts | 168° |
| 2026-05-08 19:35 | 47.91091 | 16.44262 | 10880 ft | 327 kts | 168° |
| 2026-05-08 19:35 | 47.88796 | 16.45084 | 11174 ft | 351 kts | 168° |
| 2026-05-08 19:36 | 47.86343 | 16.45959 | 11398 ft | 375 kts | 168° |
| 2026-05-08 19:36 | 47.83746 | 16.46877 | 11808 ft | 390 kts | 168° |
| 2026-05-08 19:36 | 47.81080 | 16.47816 | 12513 ft | 396 kts | 168° |
| 2026-05-08 19:36 | 47.78380 | 16.48767 | 13280 ft | 401 kts | 167° |
| 2026-05-08 19:37 | 47.75645 | 16.49729 | 14033 ft | 406 kts | 167° |
| 2026-05-08 19:37 | 47.72877 | 16.50700 | 14737 ft | 411 kts | 168° |
| 2026-05-08 19:37 | 47.70084 | 16.51680 | 15449 ft | 414 kts | 167° |
| 2026-05-08 19:37 | 47.67343 | 16.53068 | 16136 ft | 420 kts | 156° |
| 2026-05-08 19:38 | 47.64810 | 16.55255 | 16808 ft | 425 kts | 144° |
| 2026-05-08 19:38 | 47.62608 | 16.58186 | 17419 ft | 429 kts | 133° |
| 2026-05-08 19:38 | 47.60832 | 16.61767 | 17985 ft | 434 kts | 121° |
| 2026-05-08 19:38 | 47.59531 | 16.65825 | 18485 ft | 438 kts | 114° |
| 2026-05-08 19:39 | 47.58269 | 16.69947 | 18922 ft | 440 kts | 120° |
| 2026-05-08 19:39 | 47.56409 | 16.73526 | 19333 ft | 440 kts | 138° |
| 2026-05-08 19:39 | 47.53915 | 16.76111 | 19742 ft | 439 kts | 155° |
| 2026-05-08 19:39 | 47.51030 | 16.77508 | 20148 ft | 437 kts | 172° |
| 2026-05-08 19:40 | 47.48007 | 16.77629 | 20547 ft | 435 kts | 188° |
| 2026-05-08 19:40 | 47.45000 | 16.77040 | 20930 ft | 437 kts | 187° |
| 2026-05-08 19:40 | 47.41958 | 16.76827 | 21297 ft | 440 kts | 181° |
| 2026-05-08 19:40 | 47.38889 | 16.77033 | 21656 ft | 442 kts | 178° |
| 2026-05-08 19:41 | 47.35854 | 16.77295 | 22013 ft | 444 kts | 178° |
| 2026-05-08 19:41 | 47.32729 | 16.77584 | 22365 ft | 445 kts | 178° |
| 2026-05-08 19:41 | 47.29632 | 16.77886 | 22705 ft | 447 kts | 178° |
| 2026-05-08 19:41 | 47.26566 | 16.78190 | 23027 ft | 448 kts | 178° |
| 2026-05-08 19:42 | 47.23453 | 16.78494 | 23373 ft | 449 kts | 178° |
| 2026-05-08 19:42 | 47.20331 | 16.78794 | 23675 ft | 450 kts | 178° |
| 2026-05-08 19:42 | 47.17200 | 16.79096 | 23915 ft | 452 kts | 178° |
| 2026-05-08 19:42 | 47.14059 | 16.79404 | 24153 ft | 453 kts | 178° |
| 2026-05-08 19:43 | 47.10910 | 16.79710 | 24386 ft | 454 kts | 178° |
| 2026-05-08 19:43 | 47.07753 | 16.80010 | 24610 ft | 455 kts | 178° |
| 2026-05-08 19:43 | 47.04588 | 16.80308 | 24828 ft | 456 kts | 178° |
| 2026-05-08 19:43 | 47.01416 | 16.80606 | 25037 ft | 457 kts | 178° |
| 2026-05-08 19:44 | 46.98240 | 16.80908 | 25296 ft | 457 kts | 178° |
| 2026-05-08 19:44 | 46.95073 | 16.81213 | 25590 ft | 455 kts | 178° |
| 2026-05-08 19:44 | 46.91921 | 16.81586 | 25888 ft | 456 kts | 174° |
| 2026-05-08 19:44 | 46.88822 | 16.82589 | 26181 ft | 458 kts | 165° |
| 2026-05-08 19:45 | 46.85868 | 16.84353 | 26476 ft | 460 kts | 155° |
| 2026-05-08 19:45 | 46.83145 | 16.86837 | 26777 ft | 464 kts | 146° |
| 2026-05-08 19:45 | 46.80657 | 16.89848 | 27085 ft | 465 kts | 142° |
| 2026-05-08 19:45 | 46.78198 | 16.92904 | 27387 ft | 464 kts | 142° |
| 2026-05-08 19:46 | 46.75744 | 16.95958 | 27700 ft | 463 kts | 142° |
| 2026-05-08 19:46 | 46.73291 | 16.99005 | 28001 ft | 463 kts | 142° |
| 2026-05-08 19:46 | 46.68384 | 17.05075 | 28616 ft | 462 kts | 143° |
| 2026-05-08 19:47 | 46.65931 | 17.08098 | 28932 ft | 462 kts | 143° |
| 2026-05-08 19:47 | 46.63477 | 17.11117 | 29248 ft | 462 kts | 143° |
| 2026-05-08 19:47 | 46.61024 | 17.14135 | 29563 ft | 461 kts | 143° |
| 2026-05-08 19:47 | 46.58579 | 17.17145 | 29883 ft | 461 kts | 143° |
| 2026-05-08 19:48 | 46.56133 | 17.20155 | 30169 ft | 460 kts | 143° |
| 2026-05-08 19:48 | 46.53685 | 17.23162 | 30434 ft | 460 kts | 143° |
| 2026-05-08 19:48 | 46.51246 | 17.26154 | 30714 ft | 459 kts | 143° |
| 2026-05-08 19:48 | 46.48806 | 17.29140 | 31001 ft | 458 kts | 143° |
| 2026-05-08 19:49 | 46.46370 | 17.32116 | 31277 ft | 458 kts | 143° |
| 2026-05-08 19:49 | 46.43938 | 17.35087 | 31552 ft | 457 kts | 143° |
| 2026-05-08 19:49 | 46.41509 | 17.38049 | 31851 ft | 456 kts | 143° |
| 2026-05-08 19:49 | 46.39118 | 17.40958 | 32144 ft | 454 kts | 143° |
| 2026-05-08 19:50 | 46.36701 | 17.43896 | 32446 ft | 453 kts | 144° |
| 2026-05-08 19:50 | 46.34293 | 17.46824 | 32750 ft | 451 kts | 144° |
| 2026-05-08 19:50 | 46.31890 | 17.49738 | 33047 ft | 450 kts | 144° |
| 2026-05-08 19:50 | 46.29495 | 17.52636 | 33364 ft | 448 kts | 144° |
| 2026-05-08 19:51 | 46.27109 | 17.55521 | 33676 ft | 446 kts | 144° |
| 2026-05-08 19:51 | 46.24730 | 17.58395 | 33989 ft | 445 kts | 144° |
| 2026-05-08 19:51 | 46.22358 | 17.61256 | 34257 ft | 444 kts | 144° |
| 2026-05-08 19:51 | 46.19963 | 17.64144 | 34476 ft | 444 kts | 144° |
| 2026-05-08 19:52 | 46.17622 | 17.66969 | 34678 ft | 444 kts | 144° |
| 2026-05-08 19:52 | 46.15249 | 17.69829 | 34869 ft | 445 kts | 144° |
| 2026-05-08 19:52 | 46.12872 | 17.72690 | 35057 ft | 445 kts | 144° |
| 2026-05-08 19:52 | 46.10489 | 17.75551 | 35215 ft | 446 kts | 144° |
| 2026-05-08 19:53 | 46.08100 | 17.78418 | 35366 ft | 448 kts | 144° |
| 2026-05-08 19:53 | 46.05704 | 17.81290 | 35525 ft | 448 kts | 144° |
| 2026-05-08 19:53 | 46.03304 | 17.84164 | 35692 ft | 449 kts | 144° |
| 2026-05-08 19:53 | 46.00906 | 17.87035 | 35856 ft | 450 kts | 144° |
| 2026-05-08 19:54 | 45.98499 | 17.89913 | 36019 ft | 450 kts | 144° |
| 2026-05-08 19:54 | 45.96089 | 17.92791 | 36155 ft | 451 kts | 144° |
| 2026-05-08 19:54 | 45.93676 | 17.95668 | 36333 ft | 451 kts | 144° |
| 2026-05-08 19:54 | 45.91259 | 17.98540 | 36488 ft | 451 kts | 144° |
| 2026-05-08 19:55 | 45.88839 | 18.01411 | 36634 ft | 451 kts | 144° |
| 2026-05-08 19:55 | 45.86416 | 18.04280 | 36778 ft | 451 kts | 144° |
| 2026-05-08 19:55 | 45.83994 | 18.07147 | 36956 ft | 451 kts | 144° |
| 2026-05-08 19:55 | 45.81569 | 18.10013 | 37047 ft | 453 kts | 144° |
| 2026-05-08 19:56 | 45.76402 | 18.15157 | 37053 ft | 453 kts | 156° |
| 2026-05-08 19:56 | 45.70809 | 18.19408 | 37046 ft | 457 kts | 155° |
| 2026-05-08 19:57 | 45.65178 | 18.23699 | 37049 ft | 461 kts | 155° |
| 2026-05-08 19:57 | 45.59500 | 18.28028 | 37045 ft | 463 kts | 155° |
| 2026-05-08 19:58 | 45.53808 | 18.32355 | 37049 ft | 465 kts | 155° |
| 2026-05-08 19:58 | 45.48089 | 18.36681 | 37049 ft | 466 kts | 155° |
| 2026-05-08 19:59 | 45.42349 | 18.41008 | 37031 ft | 467 kts | 155° |
| 2026-05-08 19:59 | 45.36600 | 18.45343 | 37030 ft | 468 kts | 155° |
| 2026-05-08 20:00 | 45.30844 | 18.49674 | 37022 ft | 468 kts | 155° |
| 2026-05-08 20:00 | 45.25093 | 18.53987 | 37033 ft | 468 kts | 155° |
| 2026-05-08 20:01 | 45.19335 | 18.58292 | 37039 ft | 468 kts | 155° |
| 2026-05-08 20:01 | 45.13574 | 18.62590 | 37041 ft | 468 kts | 155° |
| 2026-05-08 20:02 | 45.07812 | 18.66881 | 37048 ft | 468 kts | 155° |
| 2026-05-08 20:02 | 45.02084 | 18.71125 | 37034 ft | 468 kts | 156° |
| 2026-05-08 20:03 | 44.96024 | 18.74198 | 37032 ft | 462 kts | 168° |
| 2026-05-08 20:03 | 44.89802 | 18.76500 | 37035 ft | 462 kts | 168° |
| 2026-05-08 20:04 | 44.83580 | 18.78795 | 37041 ft | 462 kts | 168° |
| 2026-05-08 20:04 | 44.77353 | 18.81085 | 37033 ft | 463 kts | 168° |
| 2026-05-08 20:05 | 44.71121 | 18.83371 | 37033 ft | 463 kts | 168° |
| 2026-05-08 20:05 | 44.64884 | 18.85660 | 37034 ft | 463 kts | 168° |
| 2026-05-08 20:06 | 44.58642 | 18.87949 | 37035 ft | 464 kts | 168° |
| 2026-05-08 20:06 | 44.52397 | 18.90232 | 37027 ft | 464 kts | 168° |
| 2026-05-08 20:07 | 44.46156 | 18.92508 | 37030 ft | 464 kts | 168° |
| 2026-05-08 20:07 | 44.39895 | 18.94784 | 37036 ft | 465 kts | 168° |
| 2026-05-08 20:08 | 44.33631 | 18.97053 | 37029 ft | 465 kts | 168° |
| 2026-05-08 20:08 | 44.27359 | 18.99321 | 37026 ft | 466 kts | 168° |
| 2026-05-08 20:09 | 44.21093 | 19.01590 | 37035 ft | 466 kts | 168° |
| 2026-05-08 20:09 | 44.14818 | 19.03859 | 37027 ft | 466 kts | 168° |
| 2026-05-08 20:10 | 44.08536 | 19.06118 | 37030 ft | 466 kts | 168° |
| 2026-05-08 20:10 | 44.02248 | 19.08376 | 37037 ft | 467 kts | 168° |
| 2026-05-08 20:11 | 43.95960 | 19.10630 | 37048 ft | 467 kts | 168° |
| 2026-05-08 20:11 | 43.89660 | 19.12874 | 37033 ft | 468 kts | 168° |
| 2026-05-08 20:12 | 43.83358 | 19.15120 | 37050 ft | 468 kts | 168° |
| 2026-05-08 20:12 | 43.77056 | 19.17355 | 37045 ft | 468 kts | 168° |
| 2026-05-08 20:13 | 43.70744 | 19.19592 | 37039 ft | 468 kts | 168° |
| 2026-05-08 20:13 | 43.64470 | 19.21815 | 37043 ft | 469 kts | 168° |
| 2026-05-08 20:14 | 43.58149 | 19.24054 | 37047 ft | 469 kts | 168° |
| 2026-05-08 20:14 | 43.51827 | 19.26283 | 37038 ft | 469 kts | 168° |
| 2026-05-08 20:15 | 43.45498 | 19.28506 | 37041 ft | 470 kts | 168° |
| 2026-05-08 20:15 | 43.39160 | 19.30731 | 37044 ft | 470 kts | 168° |
| 2026-05-08 20:16 | 43.32823 | 19.32957 | 37030 ft | 470 kts | 168° |
| 2026-05-08 20:16 | 43.26476 | 19.35189 | 37035 ft | 471 kts | 169° |
| 2026-05-08 20:17 | 43.20123 | 19.37406 | 37038 ft | 471 kts | 169° |
| 2026-05-08 20:17 | 43.13762 | 19.39614 | 37052 ft | 471 kts | 169° |
| 2026-05-08 20:18 | 43.07400 | 19.41811 | 37054 ft | 472 kts | 169° |
| 2026-05-08 20:18 | 43.04242 | 19.42908 | 36946 ft | 464 kts | 169° |
| 2026-05-08 20:18 | 43.01132 | 19.43993 | 36315 ft | 459 kts | 168° |
| 2026-05-08 20:19 | 42.98050 | 19.45066 | 35692 ft | 455 kts | 168° |
| 2026-05-08 20:19 | 42.94994 | 19.46125 | 35076 ft | 451 kts | 168° |
| 2026-05-08 20:19 | 42.92988 | 19.46818 | 34664 ft | 449 kts | 168° |
| 2026-05-08 20:19 | 42.88950 | 19.48206 | 33844 ft | 445 kts | 168° |
| 2026-05-08 20:20 | 42.85959 | 19.49237 | 33169 ft | 442 kts | 168° |
| 2026-05-08 20:20 | 42.83992 | 19.49915 | 32731 ft | 440 kts | 168° |
| 2026-05-08 20:20 | 42.81032 | 19.50933 | 32077 ft | 437 kts | 168° |
| 2026-05-08 20:20 | 42.78089 | 19.51942 | 31443 ft | 435 kts | 168° |
| 2026-05-08 20:21 | 42.75163 | 19.52945 | 30826 ft | 432 kts | 168° |
| 2026-05-08 20:21 | 42.72252 | 19.53943 | 30210 ft | 430 kts | 168° |
| 2026-05-08 20:21 | 42.69353 | 19.54935 | 29527 ft | 429 kts | 168° |
| 2026-05-08 20:21 | 42.66452 | 19.55929 | 28839 ft | 437 kts | 168° |
| 2026-05-08 20:22 | 42.63438 | 19.56958 | 28161 ft | 453 kts | 168° |
| 2026-05-08 20:22 | 42.60332 | 19.58017 | 27503 ft | 464 kts | 168° |
| 2026-05-08 20:22 | 42.57196 | 19.59077 | 26863 ft | 464 kts | 169° |
| 2026-05-08 20:22 | 42.54024 | 19.59692 | 26236 ft | 458 kts | 179° |
| 2026-05-08 20:23 | 42.50868 | 19.59583 | 25616 ft | 452 kts | 188° |
| 2026-05-08 20:23 | 42.47790 | 19.58849 | 25017 ft | 447 kts | 194° |
| 2026-05-08 20:23 | 42.44749 | 19.58006 | 24429 ft | 444 kts | 194° |
| 2026-05-08 20:23 | 42.41726 | 19.57173 | 23856 ft | 444 kts | 193° |
| 2026-05-08 20:24 | 42.38626 | 19.56323 | 23149 ft | 462 kts | 193° |
| 2026-05-08 20:24 | 42.35465 | 19.55459 | 22412 ft | 464 kts | 193° |
| 2026-05-08 20:24 | 42.32350 | 19.54612 | 21689 ft | 460 kts | 193° |
| 2026-05-08 20:24 | 42.29226 | 19.53769 | 20974 ft | 455 kts | 193° |
| 2026-05-08 20:25 | 42.26136 | 19.52935 | 20284 ft | 450 kts | 193° |
| 2026-05-08 20:25 | 42.23079 | 19.52108 | 19611 ft | 446 kts | 193° |
| 2026-05-08 20:25 | 42.20060 | 19.51285 | 18949 ft | 441 kts | 193° |
| 2026-05-08 20:25 | 42.17066 | 19.50468 | 18302 ft | 437 kts | 193° |
| 2026-05-08 20:26 | 42.14101 | 19.49662 | 17557 ft | 433 kts | 194° |
| 2026-05-08 20:26 | 42.11166 | 19.48865 | 16817 ft | 428 kts | 193° |
| 2026-05-08 20:26 | 42.08262 | 19.48081 | 16059 ft | 424 kts | 193° |
| 2026-05-08 20:26 | 42.05377 | 19.47303 | 15324 ft | 421 kts | 193° |
| 2026-05-08 20:27 | 42.02517 | 19.46533 | 14597 ft | 417 kts | 192° |
| 2026-05-08 20:27 | 41.99672 | 19.45883 | 13892 ft | 415 kts | 184° |
| 2026-05-08 20:27 | 41.96823 | 19.46332 | 13101 ft | 415 kts | 163° |
| 2026-05-08 20:27 | 41.94207 | 19.47940 | 12332 ft | 413 kts | 154° |
| 2026-05-08 20:28 | 41.91675 | 19.49728 | 11578 ft | 409 kts | 153° |
| 2026-05-08 20:28 | 41.89182 | 19.51526 | 10865 ft | 400 kts | 153° |
| 2026-05-08 20:28 | 41.86766 | 19.53282 | 10135 ft | 391 kts | 153° |
| 2026-05-08 20:28 | 41.84390 | 19.55006 | 9376 ft | 387 kts | 153° |
| 2026-05-08 20:29 | 41.82037 | 19.56704 | 8603 ft | 381 kts | 153° |
| 2026-05-08 20:29 | 41.79714 | 19.58372 | 7852 ft | 376 kts | 153° |
| 2026-05-08 20:29 | 41.77437 | 19.59998 | 7109 ft | 362 kts | 153° |
| 2026-05-08 20:29 | 41.75275 | 19.61539 | 6387 ft | 343 kts | 153° |
| 2026-05-08 20:30 | 41.73219 | 19.63001 | 5627 ft | 327 kts | 152° |
| 2026-05-08 20:30 | 41.71247 | 19.64400 | 4875 ft | 315 kts | 153° |
| 2026-05-08 20:30 | 41.69335 | 19.65757 | 4003 ft | 308 kts | 153° |
| 2026-05-08 20:30 | 41.67503 | 19.67063 | 3628 ft | 286 kts | 153° |
| 2026-05-08 20:31 | 41.65831 | 19.68256 | 3500 ft | 259 kts | 154° |
| 2026-05-08 20:31 | 41.64243 | 19.69009 | 3485 ft | 228 kts | 173° |
| 2026-05-08 20:31 | 41.62757 | 19.69218 | 3489 ft | 203 kts | 175° |
| 2026-05-08 20:31 | 41.61447 | 19.69393 | 3504 ft | 177 kts | 175° |
| 2026-05-08 20:32 | 41.60302 | 19.69547 | 3473 ft | 153 kts | 175° |
| 2026-05-08 20:32 | 41.59293 | 19.69682 | 3341 ft | 141 kts | 175° |
| 2026-05-08 20:32 | 41.58326 | 19.69811 | 3181 ft | 139 kts | 175° |
| 2026-05-08 20:32 | 41.57364 | 19.69939 | 3006 ft | 138 kts | 175° |
| 2026-05-08 20:33 | 41.56405 | 19.70067 | 2822 ft | 139 kts | 175° |
| 2026-05-08 20:33 | 41.55447 | 19.70195 | 2640 ft | 138 kts | 174° |
| 2026-05-08 20:33 | 41.54491 | 19.70322 | 2454 ft | 138 kts | 174° |
| 2026-05-08 20:33 | 41.53536 | 19.70450 | 2274 ft | 138 kts | 174° |
| 2026-05-08 20:34 | 41.52582 | 19.70577 | 2091 ft | 138 kts | 173° |
| 2026-05-08 20:34 | 41.51630 | 19.70704 | 1906 ft | 137 kts | 173° |
| 2026-05-08 20:34 | 41.49736 | 19.70956 | 1538 ft | 136 kts | 174° |
| 2026-05-08 20:35 | 41.48795 | 19.71082 | 1359 ft | 136 kts | 174° |
| 2026-05-08 20:35 | 41.47851 | 19.71207 | 1188 ft | 137 kts | 174° |
| 2026-05-08 20:35 | 41.46903 | 19.71334 | 1003 ft | 137 kts | 174° |
| 2026-05-08 20:35 | 41.45952 | 19.71460 | 810 ft | 137 kts | 173° |
| 2026-05-08 20:36 | 41.44992 | 19.71588 | 636 ft | 139 kts | 174° |
| 2026-05-08 20:36 | 41.44038 | 19.71715 | 433 ft | 140 kts | 174° |
| 2026-05-08 20:36 | 41.43056 | 19.71846 | 230 ft | 140 kts | 174° |
| 2026-05-08 20:36 | 41.42134 | 19.71968 | 121 ft | 123 kts | 174° |
| 2026-05-08 20:37 | 41.41445 | 19.72061 | 128 ft | 78 kts | 175° |
| 2026-05-08 20:37 | 41.41011 | 19.72120 | 133 ft | 48 kts | 174° |
| 2026-05-08 20:37 | 41.40764 | 19.72151 | 134 ft | 25 kts | 175° |
| 2026-05-08 20:37 | 41.40673 | 19.72062 | 133 ft | 18 kts | 255° |
| 2026-05-08 20:38 | 41.40642 | 19.71887 | 132 ft | 20 kts | 256° |
| 2026-05-08 20:38 | 41.40698 | 19.71768 | 132 ft | 18 kts | 352° |
| 2026-05-08 20:38 | 41.40832 | 19.71742 | 131 ft | 20 kts | 349° |
| 2026-05-08 20:38 | 41.40979 | 19.71707 | 130 ft | 23 kts | 349° |
| 2026-05-08 20:39 | 41.41143 | 19.71686 | 129 ft | 25 kts | 356° |
| 2026-05-08 20:39 | 41.41321 | 19.71665 | 128 ft | 27 kts | 354° |
| 2026-05-08 20:39 | 41.41509 | 19.71639 | 123 ft | 27 kts | 353° |
| 2026-05-08 20:39 | 41.41688 | 19.71615 | 121 ft | 26 kts | 354° |
| 2026-05-08 20:40 | 41.41867 | 19.71591 | 121 ft | 26 kts | 353° |
| 2026-05-08 20:40 | 41.42029 | 19.71571 | 122 ft | 16 kts | 353° |
| 2026-05-08 20:40 | 41.42067 | 19.71527 | 121 ft | 6 kts | 271° |
| 2026-05-08 20:40 | 41.42065 | 19.71501 | 122 ft | 2 kts | 265° |
| 2026-05-08 20:41 | 41.42065 | 19.71493 | 122 ft | 0 kts | 264° |